Terminal Aerodrome Forecast
Issued by NWS Wilmington, OH

Current Version | Previous Version | Text Only | Print | Product List | Glossary Off
Versions: 1 2 3 4 5 6 7 8 9 10 11 12 13 14 15 16 17 18 19 20 21 22 23 24 25 26

000
FTUS41 KILN 070200 AAA
TAFCVG
TAF AMD
KCVG 070244Z 0703/0806 21006KT P6SM FEW090 SCT250
     FM071200 22010KT P6SM BKN040
     FM071500 22013G22KT P6SM VCSH BKN040
     FM072000 22013G22KT P6SM VCTS BKN040CB
     FM080000 21010KT P6SM VCTS BKN040CB
     FM080300 21008KT P6SM BKN040=

USA.gov is the U.S. government's official web portal to all federal, state and local government web resources and services.